Grand Rapids, MN

6:50 PM CDT on July 31, 2014 (GMT -0500)
Southwest (KMNGRAND8) Elev 1322 ft | 47.23 °N, 93.54 °W | Change Station

Current weather conditions updated 4 minutes ago

Partly Cloudy
Partly Cloudy
79.0 °F
Feels Like 80 °F
N
1.6
Wind Variable Wind from West
Gusts 5.4 mph

Tomorrow is forecast to be nearly the same temperature as today.

Today
High -- | Low -- °F
--% Chance of Precip.
Yesterday
High -- | Low -- °F
Precip. -- in
5:51 AM 8:48 PM
Waxing Crescent, 22% visible
Pressure 29.99 in
Visibility 10.0 miles
Clouds Few 4800 ft
Heat Index 80 °F
Dew Point 62 °F
Humidity 55%
Rainfall 0.00 in
Snow Depth Not available.
UV 1 out of 12
Pollen 7.20 out of 12
Air Quality Not available.
Flu Activity Not available.
METAR KGPZ 312335Z AUTO 32007KT 10SM FEW048 24/14 A2999 RMK AO1

More Conditions Fewer Conditions

Pressure 29.99 in
Visibility 10.0 miles
Clouds Few 4800 ft
Heat Index 80 °F
Dew Point 62 °F
Humidity 55%
Rainfall 0.00 in
Snow Depth Not available.
UV 1 out of 12
Pollen 7.20 out of 12
Air Quality Not available.
Flu Activity Not available.
METAR KGPZ 312335Z AUTO 32007KT 10SM FEW048 24/14 A2999 RMK AO1

More Conditions Fewer Conditions

10-Day Weather Forecast

Almanac

Astronomy

Jul. 31, 2014 Rise Set
Actual Time 5:51 AM CDT 8:48 PM CDT
Civil Twilight 5:15 AM CDT 9:24 PM CDT
Nautical Twilight 4:29 AM CDT 10:10 PM CDT
Astronomical Twilight 3:33 AM CDT 11:05 PM CDT
Moon 10:41 AM CDT 10:38 PM CDT
Length of Visible Light 16h 08m
Length of Day
14h 57m
Tomorrow will be 2m 37s shorter.
Waxing Crescent, 22% of the Moon is Illuminated
Today
Waxing Crescent
Aug 3
First Quarter
Aug 10
Full
Aug 17
Last Quarter
Aug 25
New

Today's Extremes

State Highs State Lows

Community

WunderPhotos

Upload Photos

1,739,460 photos uploaded!

Nearby

Snow Depth

Station Depth Elevation
No new snow has been reported.

Earthquake Activity

City Distance Mag. Time & Date
No recent earthquake activity has been reported nearby.
Minimum magnitude displayed is 2.5.

Coastal Water Temperatures

Place Temperature
No Stations Reporting

Nearby Weather Stations

Station Location Temp. Heat Index Dew Point Humidity Wind Precip. Elev Updated Type
Southwest, Grand Rapids, MN 79.0 °F 80 °F 62 °F 55% West  at  1.6 mph 0.00 in / hr 1322 ft 6:46 PM CDT Normal
Near Hwy 63, Cohasset, MN 76.5 °F 78 °F 60 °F 57% WNW  at  0.0 mph 0.00 in / hr 1305 ft 6:49 PM CDT Normal
On Bass Lake, Cohasset, MN 77.1 °F 79 °F 62 °F 60% WSW  at  0.0 mph 0.00 in / hr 1273 ft 6:44 PM CDT Normal
Ye old Homestead, Deer River, MN 79.7 °F 81 °F 63 °F 57% NE  at  3.2 mph - / hr 1339 ft 6:40 PM CDT Normal
Gus' Place Resort, Deer River, MN 80.1 °F 81 °F 62 °F 54% ENE  at  3.7 mph - / hr 1283 ft 6:42 PM CDT Normal

Show More Stations Show Fewer Stations